Time;durP1;ratioP1;P1;durP2;ratioP2;P2;SDS_P1;SDS_P2;PMS_P1;PMS_P2;Temp;Humidity;BMP_temperature;BMP_pressure;BME280_temperature;BME280_humidity;BME280_pressure;Samples;Min_cycle;Max_cycle;Signal;HPM_P1;HPM_P2
2021/04/28 00:02:01;;;;;;;1.23;1.00;;;21.80;44.90;;;;;;5104303;28;20047;-38
2021/04/28 00:04:28;;;;;;;1.20;1.08;;;21.80;44.90;;;;;;5114031;27;20044;-38
2021/04/28 00:06:54;;;;;;;1.40;1.10;;;21.80;44.90;;;;;;5112878;28;20052;-38
2021/04/28 00:09:22;;;;;;;1.40;1.17;;;21.80;44.90;;;;;;5112932;28;20051;-39
2021/04/28 00:11:48;;;;;;;1.17;1.08;;;21.80;44.90;;;;;;5113366;28;20108;-38
2021/04/28 00:14:15;;;;;;;1.40;1.25;;;21.70;44.80;;;;;;5112283;28;20104;-39
2021/04/28 00:16:42;;;;;;;1.50;1.10;;;21.70;44.80;;;;;;5112252;28;20047;-38
2021/04/28 00:19:08;;;;;;;1.27;0.95;;;21.80;44.90;;;;;;5113302;27;20040;-38
2021/04/28 00:21:35;;;;;;;1.58;1.20;;;21.70;44.80;;;;;;5113408;27;20089;-38
2021/04/28 00:24:02;;;;;;;1.42;1.20;;;21.70;44.80;;;;;;5113736;28;20047;-38
2021/04/28 00:26:29;;;;;;;1.80;1.13;;;21.70;44.80;;;;;;5113572;28;20134;-38
2021/04/28 00:28:55;;;;;;;1.27;1.13;;;21.70;44.80;;;;;;5112792;28;20592;-38
2021/04/28 00:31:22;;;;;;;1.50;1.20;;;21.70;44.80;;;;;;5112909;28;20481;-38
2021/04/28 00:33:49;;;;;;;2.22;1.17;;;21.70;44.80;;;;;;5113150;28;20043;-38
2021/04/28 00:36:16;;;;;;;1.40;1.30;;;21.70;44.80;;;;;;5112699;28;20039;-39
2021/04/28 00:38:42;;;;;;;1.55;1.20;;;21.70;44.80;;;;;;5112704;27;20078;-38
2021/04/28 00:41:10;;;;;;;1.80;1.15;;;21.70;44.70;;;;;;5112667;28;20047;-38
2021/04/28 00:43:37;;;;;;;1.38;0.95;;;21.70;44.80;;;;;;5112777;27;20039;-38
2021/04/28 00:46:06;;;;;;;1.77;1.30;;;21.70;44.80;;;;;;5112751;28;20040;-38
2021/04/28 00:48:33;;;;;;;1.20;0.90;;;21.70;44.80;;;;;;5112954;27;20567;-38
2021/04/28 00:51:00;;;;;;;1.15;1.00;;;21.70;44.80;;;;;;5112648;28;20050;-38
2021/04/28 00:53:27;;;;;;;1.77;1.30;;;21.70;44.80;;;;;;5112757;27;20051;-39
2021/04/28 00:55:55;;;;;;;1.73;1.23;;;21.70;44.80;;;;;;5113558;27;20047;-38
2021/04/28 00:58:24;;;;;;;1.50;1.20;;;21.70;44.80;;;;;;5111674;28;20058;-38
2021/04/28 01:00:53;;;;;;;1.27;1.05;;;21.70;44.80;;;;;;5112975;28;20054;-39
2021/04/28 01:03:27;;;;;;;1.30;1.00;;;21.70;44.80;;;;;;5111734;28;20089;-38
2021/04/28 01:06:00;;;;;;;1.60;1.10;;;21.70;44.80;;;;;;5112455;28;20483;-38
2021/04/28 01:08:27;;;;;;;1.15;0.90;;;21.70;44.80;;;;;;5111377;28;20499;-39
2021/04/28 01:10:55;;;;;;;1.27;1.15;;;21.70;44.80;;;;;;5112289;28;20395;-38
2021/04/28 01:13:22;;;;;;;1.38;1.27;;;21.70;44.90;;;;;;5111971;27;20059;-38
2021/04/28 01:15:50;;;;;;;1.42;0.95;;;21.70;44.80;;;;;;5112023;28;21576;-39
2021/04/28 01:18:18;;;;;;;1.20;1.00;;;21.70;44.80;;;;;;5111648;28;20039;-38
2021/04/28 01:20:46;;;;;;;1.63;1.33;;;21.70;44.80;;;;;;5111727;28;20046;-38
2021/04/28 01:23:15;;;;;;;1.40;1.10;;;21.70;44.80;;;;;;5112007;28;20505;-38
2021/04/28 01:25:43;;;;;;;1.20;1.10;;;21.70;44.80;;;;;;5112069;27;20048;-39
2021/04/28 01:28:19;;;;;;;1.20;1.10;;;21.70;44.80;;;;;;5111534;28;20105;-38
2021/04/28 01:31:12;;;;;;;1.33;1.10;;;21.70;44.80;;;;;;5112235;27;20070;-38
2021/04/28 01:34:01;;;;;;;1.40;1.10;;;21.70;44.80;;;;;;5111606;27;20082;-38
2021/04/28 01:36:33;;;;;;;1.30;1.17;;;21.70;44.80;;;;;;5112193;28;20064;-38
2021/04/28 01:39:05;;;;;;;1.77;1.20;;;21.70;44.80;;;;;;5111473;28;20116;-39
2021/04/28 01:41:38;;;;;;;1.25;1.15;;;21.60;44.70;;;;;;5111490;28;20050;-38
2021/04/28 01:44:06;;;;;;;1.30;0.88;;;21.70;44.80;;;;;;5112313;27;20047;-41
2021/04/28 01:46:33;;;;;;;1.20;1.00;;;21.70;44.80;;;;;;5111081;28;20044;-38
2021/04/28 01:49:02;;;;;;;1.63;1.08;;;21.70;44.80;;;;;;5101098;28;20419;-38
2021/04/28 01:51:31;;;;;;;1.35;1.20;;;21.70;44.90;;;;;;5110977;28;20491;-39
2021/04/28 01:53:58;;;;;;;1.42;1.20;;;21.70;44.80;;;;;;5111953;27;20407;-38
2021/04/28 01:56:26;;;;;;;1.02;0.85;;;21.70;44.80;;;;;;5111356;28;20044;-38
2021/04/28 01:58:54;;;;;;;1.30;1.17;;;21.70;44.80;;;;;;5111013;28;20047;-38
2021/04/28 02:01:22;;;;;;;1.10;1.00;;;21.70;44.80;;;;;;5100992;28;20096;-38
2021/04/28 02:03:50;;;;;;;1.35;1.15;;;21.70;44.80;;;;;;5111615;28;20097;-39
2021/04/28 02:06:17;;;;;;;1.20;0.90;;;21.70;44.80;;;;;;5111217;28;20047;-38
2021/04/28 02:08:43;;;;;;;1.02;0.93;;;21.70;44.80;;;;;;5111024;28;20456;-38
2021/04/28 02:11:10;;;;;;;1.70;1.00;;;21.70;44.80;;;;;;5110972;27;20052;-39
2021/04/28 02:13:42;;;;;;;1.42;1.02;;;21.70;44.80;;;;;;5111024;28;20100;-38
2021/04/28 02:16:10;;;;;;;1.55;1.20;;;21.70;44.80;;;;;;5110693;28;20050;-39
2021/04/28 02:18:39;;;;;;;1.85;1.48;;;21.70;44.80;;;;;;5110186;28;20050;-39
2021/04/28 02:21:06;;;;;;;1.30;1.10;;;21.70;44.80;;;;;;5110211;28;20050;-38
2021/04/28 02:23:40;;;;;;;1.17;1.00;;;21.70;44.80;;;;;;5111574;28;20483;-39
2021/04/28 02:26:06;;;;;;;1.48;1.20;;;21.70;44.80;;;;;;5110253;28;20097;-39
2021/04/28 02:28:33;;;;;;;1.80;1.05;;;21.70;44.80;;;;;;5111130;28;20399;-39
2021/04/28 02:31:03;;;;;;;1.55;1.45;;;21.70;44.80;;;;;;5111161;28;20074;-38
2021/04/28 02:33:30;;;;;;;1.13;0.80;;;21.60;44.70;;;;;;5110367;28;20062;-38
2021/04/28 02:35:57;;;;;;;1.45;1.10;;;21.60;44.70;;;;;;5101107;28;20059;-38
2021/04/28 02:38:39;;;;;;;1.58;1.25;;;21.60;44.70;;;;;;5111076;28;20043;-39
2021/04/28 02:41:07;;;;;;;3.30;1.05;;;21.60;44.70;;;;;;5110422;28;20495;-39
2021/04/28 02:43:37;;;;;;;1.67;1.10;;;21.60;44.70;;;;;;5111227;28;20044;-39
2021/04/28 02:46:07;;;;;;;1.30;1.08;;;21.60;44.70;;;;;;5110821;28;20055;-39
2021/04/28 02:48:34;;;;;;;1.92;1.17;;;21.60;44.70;;;;;;5111467;28;20448;-38
2021/04/28 02:51:01;;;;;;;1.65;1.15;;;21.60;44.70;;;;;;5110404;28;20047;-39
2021/04/28 02:53:29;;;;;;;1.75;1.10;;;21.60;44.70;;;;;;5110470;28;20523;-38
2021/04/28 02:55:57;;;;;;;1.40;1.20;;;21.60;44.70;;;;;;5110272;28;20039;-38
2021/04/28 02:58:26;;;;;;;1.15;1.00;;;21.60;44.70;;;;;;5110279;28;20052;-38
2021/04/28 03:00:55;;;;;;;1.20;1.10;;;21.60;44.70;;;;;;5110598;28;20040;-38
2021/04/28 03:03:23;;;;;;;1.25;1.00;;;21.60;44.70;;;;;;5110513;28;20052;-39
2021/04/28 03:05:53;;;;;;;1.20;1.10;;;21.60;44.70;;;;;;5111334;28;20048;-39
2021/04/28 03:08:20;;;;;;;1.48;1.08;;;21.60;44.70;;;;;;5109708;28;20270;-38
2021/04/28 03:10:49;;;;;;;1.40;1.13;;;21.60;44.70;;;;;;5101777;28;20052;-39
2021/04/28 03:13:16;;;;;;;1.23;1.13;;;21.60;44.70;;;;;;5100608;28;20059;-38
2021/04/28 03:15:43;;;;;;;1.13;0.90;;;21.60;44.70;;;;;;5110338;28;20402;-38
2021/04/28 03:18:12;;;;;;;2.13;1.23;;;21.60;44.70;;;;;;5110131;28;20048;-39
2021/04/28 03:20:44;;;;;;;1.80;1.10;;;21.60;44.70;;;;;;5110174;28;20084;-38
2021/04/28 03:23:12;;;;;;;1.10;0.88;;;21.60;44.70;;;;;;5110191;28;20043;-38
2021/04/28 03:25:41;;;;;;;1.60;1.15;;;21.60;44.70;;;;;;5110545;28;20089;-39
2021/04/28 03:28:08;;;;;;;1.30;1.10;;;21.60;44.70;;;;;;5110291;28;20651;-38
2021/04/28 03:30:35;;;;;;;1.10;0.85;;;21.60;44.70;;;;;;5109885;28;20120;-38
2021/04/28 03:33:02;;;;;;;1.58;1.10;;;21.60;44.70;;;;;;5110902;28;20040;-40
2021/04/28 03:35:29;;;;;;;1.27;0.95;;;21.60;44.70;;;;;;5101200;28;20055;-38
2021/04/28 03:37:56;;;;;;;1.73;1.05;;;21.60;44.70;;;;;;5111064;28;20052;-39
2021/04/28 03:40:23;;;;;;;1.38;1.08;;;21.60;44.70;;;;;;5100970;28;20048;-39
2021/04/28 03:42:50;;;;;;;1.27;1.00;;;21.60;44.70;;;;;;5110053;28;20217;-38
2021/04/28 03:45:17;;;;;;;1.45;1.00;;;21.60;44.70;;;;;;5110278;28;20047;-38
2021/04/28 03:47:43;;;;;;;1.00;0.90;;;21.60;44.70;;;;;;5110840;28;20063;-38
2021/04/28 03:50:11;;;;;;;1.00;0.90;;;21.60;44.70;;;;;;5110684;28;20079;-38
2021/04/28 03:52:38;;;;;;;1.13;1.00;;;21.60;44.70;;;;;;5113965;27;20405;-38
2021/04/28 03:55:09;;;;;;;1.42;1.17;;;21.60;44.70;;;;;;5113146;28;20048;-39
2021/04/28 03:57:37;;;;;;;1.05;0.93;;;21.60;44.70;;;;;;5113675;27;20449;-38
2021/04/28 04:00:06;;;;;;;1.15;0.90;;;21.60;44.70;;;;;;5113854;28;20044;-39
2021/04/28 04:02:32;;;;;;;1.25;1.15;;;21.60;44.70;;;;;;5113383;28;20050;-38
2021/04/28 04:04:59;;;;;;;1.35;1.10;;;21.60;44.70;;;;;;5114055;28;20046;-39
2021/04/28 04:07:27;;;;;;;1.55;1.08;;;21.60;44.70;;;;;;5113145;28;20047;-39
2021/04/28 04:09:53;;;;;;;1.65;1.00;;;21.60;44.70;;;;;;5113540;28;20047;-38
2021/04/28 04:12:20;;;;;;;1.20;0.98;;;21.60;44.70;;;;;;5112887;28;20461;-39
2021/04/28 04:14:47;;;;;;;1.27;1.10;;;21.60;44.70;;;;;;5112959;28;20051;-38
2021/04/28 04:17:14;;;;;;;1.80;1.23;;;21.60;44.70;;;;;;5114106;27;20047;-40
2021/04/28 04:19:41;;;;;;;1.10;1.00;;;21.60;44.70;;;;;;5112931;28;20051;-38
2021/04/28 04:22:08;;;;;;;1.15;1.00;;;21.60;44.70;;;;;;5113066;28;20130;-38
2021/04/28 04:24:34;;;;;;;1.42;1.20;;;21.60;44.70;;;;;;5113219;28;20518;-38
2021/04/28 04:27:01;;;;;;;1.10;1.00;;;21.60;44.70;;;;;;5114046;27;20040;-38
2021/04/28 04:29:28;;;;;;;1.83;1.25;;;21.60;44.70;;;;;;5086784;28;20047;-38
2021/04/28 04:31:54;;;;;;;1.25;0.98;;;21.60;44.60;;;;;;5113545;28;20062;-38
2021/04/28 04:34:22;;;;;;;1.40;1.00;;;21.60;44.60;;;;;;5113240;28;20059;-39
2021/04/28 04:36:49;;;;;;;1.73;1.20;;;21.60;44.70;;;;;;5113181;27;20058;-38
2021/04/28 04:39:16;;;;;;;1.00;0.80;;;21.60;44.70;;;;;;5112163;28;20047;-38
2021/04/28 04:41:42;;;;;;;2.15;1.02;;;21.60;44.70;;;;;;5113544;27;20423;-38
2021/04/28 04:44:09;;;;;;;1.13;1.00;;;21.60;44.60;;;;;;5112560;28;20514;-39
2021/04/28 04:46:36;;;;;;;1.20;1.10;;;21.60;44.60;;;;;;5102113;28;20036;-38
2021/04/28 04:49:03;;;;;;;1.83;1.35;;;21.60;44.60;;;;;;5102412;28;20130;-39
2021/04/28 04:51:29;;;;;;;1.27;1.05;;;21.60;44.60;;;;;;5112982;28;20051;-39
2021/04/28 04:53:56;;;;;;;1.65;1.15;;;21.60;44.60;;;;;;5113208;28;20051;-39
2021/04/28 04:56:23;;;;;;;1.23;1.10;;;21.60;44.60;;;;;;5136995;27;20061;-39
2021/04/28 04:58:50;;;;;;;1.20;1.02;;;21.60;44.60;;;;;;5112403;28;20271;-38
2021/04/28 05:01:16;;;;;;;1.30;1.08;;;21.60;44.60;;;;;;5111711;27;20055;-39
2021/04/28 05:03:43;;;;;;;1.30;0.93;;;21.60;44.60;;;;;;5112242;28;20059;-38
2021/04/28 05:06:10;;;;;;;1.30;1.10;;;21.60;44.60;;;;;;5112524;28;20058;-39
2021/04/28 05:08:37;;;;;;;1.70;1.13;;;21.60;44.60;;;;;;5111139;28;20050;-39
2021/04/28 05:11:04;;;;;;;1.13;0.93;;;21.60;44.60;;;;;;5113110;27;20047;-40
2021/04/28 05:13:30;;;;;;;1.02;0.93;;;21.60;44.60;;;;;;5110879;28;20063;-38
2021/04/28 05:15:57;;;;;;;1.50;1.10;;;21.60;44.60;;;;;;5111817;28;20043;-39
2021/04/28 05:18:24;;;;;;;1.00;0.90;;;21.60;44.60;;;;;;5112600;28;20074;-39
2021/04/28 05:20:51;;;;;;;0.80;0.80;;;21.60;44.60;;;;;;5112037;28;20409;-38
2021/04/28 05:23:17;;;;;;;1.23;1.02;;;21.60;44.50;;;;;;5112423;28;20127;-39
2021/04/28 05:25:44;;;;;;;1.45;1.05;;;21.60;44.50;;;;;;5101826;28;20048;-38
2021/04/28 05:28:11;;;;;;;1.65;1.17;;;21.60;44.50;;;;;;5111533;28;20104;-39
2021/04/28 05:30:37;;;;;;;0.93;0.82;;;21.60;45.10;;;;;;5111762;28;20103;-38
2021/04/28 05:33:05;;;;;;;1.33;0.98;;;21.60;44.50;;;;;;5112617;27;20406;-38
2021/04/28 05:35:32;;;;;;;1.15;0.90;;;21.60;44.50;;;;;;5110990;28;20104;-39
2021/04/28 05:37:58;;;;;;;1.10;0.90;;;21.60;44.50;;;;;;5111586;28;20051;-38
2021/04/28 05:40:25;;;;;;;1.67;1.20;;;21.60;44.50;;;;;;5111196;28;20057;-38
2021/04/28 05:42:52;;;;;;;1.25;1.08;;;21.60;44.50;;;;;;5111670;28;20108;-38
2021/04/28 05:45:19;;;;;;;1.05;0.93;;;21.60;44.50;;;;;;5101807;28;20603;-38
2021/04/28 05:47:45;;;;;;;1.15;0.90;;;21.60;44.50;;;;;;5112056;28;20425;-37
2021/04/28 05:50:15;;;;;;;1.30;1.10;;;21.60;44.50;;;;;;5111866;28;20406;-40
2021/04/28 05:52:42;;;;;;;1.25;0.93;;;21.60;44.50;;;;;;5111101;28;20100;-37
2021/04/28 05:55:10;;;;;;;1.30;1.10;;;21.60;44.50;;;;;;5111618;27;20051;-37
2021/04/28 05:57:39;;;;;;;1.60;1.13;;;21.60;44.50;;;;;;5111422;28;20044;-37
2021/04/28 06:00:09;;;;;;;1.05;0.90;;;21.60;44.50;;;;;;5110608;28;20072;-37
2021/04/28 06:02:36;;;;;;;1.27;1.10;;;21.60;44.50;;;;;;5111004;28;20553;-37
2021/04/28 06:05:04;;;;;;;1.88;1.20;;;21.60;44.50;;;;;;5111465;27;20050;-37
2021/04/28 06:07:31;;;;;;;1.17;1.08;;;21.60;44.40;;;;;;5109843;28;20452;-37
2021/04/28 06:09:58;;;;;;;1.75;1.30;;;21.60;44.50;;;;;;5111574;28;20054;-37
2021/04/28 06:12:24;;;;;;;1.80;1.00;;;21.60;44.40;;;;;;5100144;28;20052;-37
2021/04/28 06:14:51;;;;;;;1.63;1.20;;;21.60;44.50;;;;;;5110692;28;20533;-37
2021/04/28 06:17:18;;;;;;;1.20;1.10;;;21.60;44.40;;;;;;5111367;28;20055;-37
2021/04/28 06:19:45;;;;;;;1.08;0.88;;;21.60;44.50;;;;;;5111071;28;20134;-37
2021/04/28 06:22:12;;;;;;;1.17;0.93;;;21.60;44.40;;;;;;5100331;28;20043;-37
2021/04/28 06:24:38;;;;;;;1.50;0.95;;;21.60;44.40;;;;;;5110644;28;20047;-38
2021/04/28 06:27:05;;;;;;;0.93;0.70;;;21.60;44.40;;;;;;5110165;28;20093;-38
2021/04/28 06:29:32;;;;;;;1.15;1.05;;;21.60;44.40;;;;;;5110634;28;20096;-38
2021/04/28 06:31:59;;;;;;;1.10;0.90;;;21.60;44.40;;;;;;5110684;28;20039;-37
2021/04/28 06:34:27;;;;;;;1.75;1.23;;;21.60;44.40;;;;;;5110540;28;20557;-37
2021/04/28 06:36:54;;;;;;;1.08;0.98;;;21.60;44.40;;;;;;5110860;28;20043;-37
2021/04/28 06:39:21;;;;;;;1.25;0.90;;;21.60;44.40;;;;;;5110709;28;20074;-37
2021/04/28 06:41:47;;;;;;;1.30;0.98;;;21.60;44.40;;;;;;5110776;28;20059;-38
2021/04/28 06:44:14;;;;;;;1.90;1.05;;;21.60;44.40;;;;;;5111008;28;20108;-38
2021/04/28 06:46:40;;;;;;;1.10;0.95;;;21.60;44.40;;;;;;5110114;28;20051;-37
2021/04/28 06:49:07;;;;;;;1.17;1.00;;;21.60;44.40;;;;;;5110557;28;20556;-38
2021/04/28 06:51:34;;;;;;;1.60;1.20;;;21.70;44.50;;;;;;5110244;28;20043;-38
2021/04/28 06:54:01;;;;;;;1.75;1.05;;;21.60;44.40;;;;;;5110000;28;20056;-38
2021/04/28 06:56:28;;;;;;;2.08;1.27;;;21.70;44.40;;;;;;5110772;28;20055;-37
2021/04/28 06:58:55;;;;;;;1.33;1.08;;;21.70;44.40;;;;;;5110250;28;20124;-38
2021/04/28 07:01:22;;;;;;;1.30;0.90;;;21.70;44.40;;;;;;5099920;28;20406;-37
2021/04/28 07:03:49;;;;;;;1.73;0.95;;;21.70;44.40;;;;;;5110684;28;20479;-38
2021/04/28 07:06:16;;;;;;;1.27;1.10;;;21.70;44.40;;;;;;5110407;28;20151;-38
2021/04/28 07:08:43;;;;;;;1.40;1.00;;;21.70;44.40;;;;;;5100654;28;20051;-38
2021/04/28 07:11:09;;;;;;;1.50;1.13;;;21.70;44.40;;;;;;5110088;28;20124;-38
2021/04/28 07:13:36;;;;;;;2.15;1.10;;;21.70;44.30;;;;;;5109829;28;20055;-38
2021/04/28 07:16:04;;;;;;;1.20;1.00;;;21.70;44.30;;;;;;5110225;28;20051;-38
2021/04/28 07:18:30;;;;;;;2.17;1.20;;;21.70;44.30;;;;;;5109238;28;20143;-38
2021/04/28 07:20:57;;;;;;;1.40;0.82;;;21.70;44.30;;;;;;5110239;28;20058;-37
2021/04/28 07:23:24;;;;;;;1.60;1.10;;;21.70;44.30;;;;;;5111048;28;20089;-39
2021/04/28 07:25:51;;;;;;;1.58;1.10;;;21.70;44.30;;;;;;5113184;28;20092;-38
2021/04/28 07:28:17;;;;;;;1.17;1.02;;;21.70;44.30;;;;;;5113703;28;20092;-38
2021/04/28 07:30:44;;;;;;;1.15;1.00;;;21.70;44.30;;;;;;5114390;28;20570;-38
2021/04/28 07:33:11;;;;;;;1.15;1.05;;;21.70;44.30;;;;;;5114517;28;20051;-39
2021/04/28 07:35:38;;;;;;;1.55;1.40;;;21.70;44.30;;;;;;5104817;28;20048;-38
2021/04/28 07:38:05;;;;;;;1.08;0.98;;;21.70;44.30;;;;;;5114277;28;20062;-39
2021/04/28 07:40:32;;;;;;;1.42;1.10;;;21.70;44.30;;;;;;5113752;28;20048;-39
2021/04/28 07:42:59;;;;;;;1.23;1.10;;;21.70;44.90;;;;;;5113531;28;20050;-39
2021/04/28 07:45:25;;;;;;;1.38;1.00;;;21.80;44.30;;;;;;5113034;28;20043;-38
2021/04/28 07:47:52;;;;;;;2.85;1.20;;;21.70;44.30;;;;;;5114114;27;20066;-38
2021/04/28 07:50:19;;;;;;;1.23;0.90;;;21.80;44.40;;;;;;5113847;27;20076;-39
2021/04/28 07:52:49;;;;;;;1.20;1.00;;;21.80;44.30;;;;;;5087552;28;20510;-38
2021/04/28 07:55:16;;;;;;;1.83;1.05;;;21.80;44.30;;;;;;5113168;28;20094;-39
2021/04/28 07:57:43;;;;;;;1.20;0.88;;;21.80;44.30;;;;;;5113995;28;20051;-38
2021/04/28 08:00:13;;;;;;;1.20;1.00;;;21.80;44.30;;;;;;5113188;28;20058;-38
2021/04/28 08:02:40;;;;;;;1.70;1.20;;;21.80;44.30;;;;;;5114156;28;20241;-38
2021/04/28 08:05:08;;;;;;;1.52;1.33;;;21.80;44.30;;;;;;5113741;28;20039;-39
2021/04/28 08:07:36;;;;;;;2.60;1.20;;;21.80;44.30;;;;;;5112740;27;20051;-39
2021/04/28 08:10:06;;;;;;;1.23;0.95;;;21.80;44.30;;;;;;5112882;28;20075;-38
2021/04/28 08:12:33;;;;;;;1.20;1.10;;;21.80;44.40;;;;;;5112856;28;20077;-38
2021/04/28 08:15:00;;;;;;;1.27;1.15;;;21.80;44.30;;;;;;5113237;28;20388;-38
2021/04/28 08:17:29;;;;;;;1.17;1.08;;;21.80;44.40;;;;;;5112211;28;20043;-38
2021/04/28 08:20:00;;;;;;;1.42;1.17;;;21.80;44.40;;;;;;5112837;27;20043;-38
2021/04/28 08:22:27;;;;;;;1.10;0.90;;;21.80;44.40;;;;;;5112578;27;20040;-38
2021/04/28 08:24:55;;;;;;;1.73;1.30;;;21.80;44.40;;;;;;5102730;28;20085;-38
2021/04/28 08:27:23;;;;;;;1.00;0.90;;;21.90;44.50;;;;;;5113343;28;20055;-38
2021/04/28 08:29:50;;;;;;;2.17;1.10;;;21.90;44.50;;;;;;5112820;28;20052;-38
2021/04/28 08:32:17;;;;;;;1.33;0.85;;;21.90;44.50;;;;;;5113514;28;20568;-39
2021/04/28 08:34:48;;;;;;;1.63;1.25;;;21.90;44.50;;;;;;5113304;28;20052;-39
2021/04/28 08:37:17;;;;;;;1.60;0.80;;;21.90;44.50;;;;;;5111717;28;20051;-39
2021/04/28 08:39:44;;;;;;;1.52;1.10;;;21.90;44.50;;;;;;5112487;28;20047;-39
2021/04/28 08:42:11;;;;;;;1.60;1.10;;;21.90;44.50;;;;;;5113076;28;20040;-38
2021/04/28 08:44:39;;;;;;;1.23;1.10;;;21.90;44.50;;;;;;5112129;28;20040;-38
2021/04/28 08:47:05;;;;;;;1.20;1.00;;;21.90;44.50;;;;;;5111897;28;20398;-40
2021/04/28 08:49:34;;;;;;;1.75;1.10;;;21.90;44.50;;;;;;5112499;27;20546;-39
2021/04/28 08:52:01;;;;;;;1.17;0.93;;;21.90;44.50;;;;;;5112227;28;20048;-38
2021/04/28 08:54:46;;;;;;;1.13;0.75;;;21.90;44.50;;;;;;5112983;27;20093;-39
2021/04/28 08:57:13;;;;;;;2.63;0.98;;;21.90;44.50;;;;;;5112389;28;20118;-40
2021/04/28 08:59:41;;;;;;;1.10;1.00;;;21.90;44.50;;;;;;5112658;28;20047;-39
2021/04/28 09:02:22;;;;;;;1.75;1.02;;;21.90;44.60;;;;;;5113019;27;20047;-38
2021/04/28 09:05:10;;;;;;;2.05;1.10;;;21.90;44.60;;;;;;5114286;27;20462;-39
2021/04/28 09:07:43;;;;;;;1.63;1.20;;;21.90;44.60;;;;;;5098064;28;20119;-39
2021/04/28 09:10:25;;;;;;;1.70;1.02;;;21.90;44.60;;;;;;5097655;27;20056;-39
2021/04/28 09:12:58;;;;;;;1.45;1.00;;;21.90;44.60;;;;;;5098217;27;20051;-39
2021/04/28 09:15:43;;;;;;;1.33;1.10;;;21.90;44.60;;;;;;5096826;28;20096;-38
2021/04/28 09:18:13;;;;;;;1.38;0.90;;;21.90;44.60;;;;;;5101427;27;20049;-39
2021/04/28 09:20:50;;;;;;;1.55;1.20;;;21.90;44.70;;;;;;5130622;27;20071;-39
2021/04/28 09:23:29;;;;;;;1.10;0.90;;;22.00;44.70;;;;;;5114696;27;20122;-39
2021/04/28 09:25:56;;;;;;;2.80;1.17;;;22.00;44.70;;;;;;5128612;27;20043;-39
2021/04/28 09:28:29;;;;;;;1.35;0.80;;;22.00;44.70;;;;;;5116021;27;20043;-39
2021/04/28 09:31:05;;;;;;;1.75;1.13;;;22.00;44.70;;;;;;5131549;27;20522;-40
2021/04/28 09:33:45;;;;;;;1.65;0.90;;;22.00;44.70;;;;;;5130105;27;20047;-38
2021/04/28 09:36:14;;;;;;;1.23;0.82;;;22.00;44.80;;;;;;5129250;27;20047;-38
2021/04/28 09:38:55;;;;;;;2.00;1.15;;;22.00;44.80;;;;;;5115597;27;20042;-40
2021/04/28 09:41:34;;;;;;;1.27;1.05;;;22.00;44.80;;;;;;5114365;27;20152;-38
2021/04/28 09:44:21;;;;;;;1.20;0.90;;;22.00;44.80;;;;;;5114708;27;20435;-38
2021/04/28 09:47:05;;;;;;;1.13;1.02;;;22.00;44.70;;;;;;5096305;28;20522;-39
2021/04/28 09:49:47;;;;;;;2.42;1.05;;;22.00;44.80;;;;;;5115035;27;20097;-38
2021/04/28 09:52:37;;;;;;;1.20;0.90;;;22.00;44.80;;;;;;5114395;27;20479;-39
2021/04/28 09:55:08;;;;;;;1.45;1.08;;;22.00;44.80;;;;;;5124256;27;20115;-38
2021/04/28 09:57:40;;;;;;;1.65;0.93;;;22.00;44.80;;;;;;5129930;27;20043;-39
2021/04/28 10:00:21;;;;;;;1.27;1.00;;;22.00;44.80;;;;;;5121707;27;20054;-39
2021/04/28 10:03:05;;;;;;;1.67;1.05;;;22.00;44.80;;;;;;5124431;27;20039;-39
2021/04/28 10:05:41;;;;;;;0.73;0.73;;;22.00;44.80;;;;;;5118450;27;20403;-38
2021/04/28 10:08:20;;;;;;;1.20;0.98;;;22.00;44.80;;;;;;5115849;27;20514;-38
2021/04/28 10:10:50;;;;;;;1.30;1.13;;;22.00;44.80;;;;;;5112927;28;20117;-39
2021/04/28 10:13:17;;;;;;;1.50;1.10;;;22.00;44.80;;;;;;5124031;27;20509;-39
2021/04/28 10:15:44;;;;;;;1.58;1.13;;;22.00;44.80;;;;;;5130980;27;20059;-40
2021/04/28 10:18:14;;;;;;;1.10;1.00;;;22.10;44.90;;;;;;5119407;27;20139;-39
2021/04/28 10:20:43;;;;;;;1.02;0.88;;;22.00;44.80;;;;;;5113990;28;20109;-39
2021/04/28 10:23:12;;;;;;;1.55;1.20;;;22.10;44.90;;;;;;5121198;27;20043;-39
2021/04/28 10:25:40;;;;;;;1.10;0.90;;;22.10;44.90;;;;;;5123057;27;20484;-39
2021/04/28 10:28:11;;;;;;;1.35;0.90;;;22.10;44.90;;;;;;5112384;28;20035;-39
2021/04/28 10:30:42;;;;;;;1.10;0.85;;;22.10;44.90;;;;;;5118611;27;20051;-39
2021/04/28 10:33:24;;;;;;;1.00;0.75;;;22.10;44.90;;;;;;5107236;28;20092;-39
2021/04/28 10:35:52;;;;;;;1.00;0.80;;;22.10;44.90;;;;;;5113879;28;20152;-39
2021/04/28 10:38:25;;;;;;;1.20;0.90;;;22.10;44.90;;;;;;5112891;28;20051;-39
2021/04/28 10:40:52;;;;;;;1.50;1.10;;;22.10;44.90;;;;;;5113566;28;20051;-39
2021/04/28 10:43:20;;;;;;;1.40;1.10;;;22.10;44.90;;;;;;5094538;28;20054;-39
2021/04/28 10:45:48;;;;;;;1.88;1.00;;;22.10;44.90;;;;;;5117822;28;20047;-41
2021/04/28 10:48:40;;;;;;;1.00;0.88;;;22.10;44.90;;;;;;5122515;28;20054;-39
2021/04/28 10:51:07;;;;;;;2.50;1.10;;;22.10;44.90;;;;;;5113715;28;20438;-39
2021/04/28 10:53:34;;;;;;;1.42;1.00;;;22.10;44.90;;;;;;5112150;28;20043;-40
2021/04/28 10:56:09;;;;;;;1.17;0.80;;;22.10;44.90;;;;;;5112058;28;20048;-41
2021/04/28 10:58:38;;;;;;;1.38;0.95;;;22.10;44.90;;;;;;5116150;27;20047;-39
2021/04/28 11:01:05;;;;;;;1.63;1.10;;;22.10;44.90;;;;;;5133742;27;20039;-37
2021/04/28 11:03:37;;;;;;;0.70;0.70;;;22.10;44.90;;;;;;5130481;27;20035;-39
2021/04/28 11:06:20;;;;;;;0.93;0.82;;;22.10;44.90;;;;;;5117850;27;20403;-39
2021/04/28 11:09:10;;;;;;;1.08;0.80;;;22.10;44.90;;;;;;5115536;28;20044;-38
2021/04/28 11:11:42;;;;;;;1.40;1.00;;;22.10;44.90;;;;;;5116301;28;20056;-37
2021/04/28 11:14:19;;;;;;;1.45;1.15;;;22.10;44.90;;;;;;5117082;27;20047;-39
2021/04/28 11:17:21;;;;;;;1.42;1.00;;;22.10;44.90;;;;;;5125671;27;20069;-38
2021/04/28 11:19:51;;;;;;;1.73;1.10;;;22.10;44.90;;;;;;5134539;27;20090;-37
2021/04/28 11:22:28;;;;;;;1.10;1.00;;;22.10;44.90;;;;;;5124654;27;20143;-38
2021/04/28 11:25:03;;;;;;;1.05;0.95;;;22.10;44.90;;;;;;5116073;28;20040;-38
2021/04/28 11:27:42;;;;;;;0.90;0.70;;;22.10;44.90;;;;;;5117462;27;20410;-37
2021/04/28 11:30:54;;;;;;;1.40;1.00;;;22.20;45.00;;;;;;5126110;27;20047;-37
2021/04/28 11:33:29;;;;;;;1.05;0.88;;;22.20;45.00;;;;;;5115060;27;20124;-37
2021/04/28 11:35:58;;;;;;;1.95;1.20;;;22.10;44.90;;;;;;5116066;27;20051;-39
2021/04/28 11:38:33;;;;;;;1.40;1.05;;;22.20;45.00;;;;;;5117214;27;20383;-40
2021/04/28 11:41:10;;;;;;;1.13;0.90;;;22.20;45.00;;;;;;5116905;27;20055;-38
2021/04/28 11:43:41;;;;;;;1.00;0.85;;;22.20;45.10;;;;;;5118241;27;20525;-37
2021/04/28 11:46:16;;;;;;;1.30;1.00;;;22.20;45.00;;;;;;5113343;28;20047;-39
2021/04/28 11:48:46;;;;;;;1.00;0.90;;;22.20;45.00;;;;;;5113136;28;20495;-38
2021/04/28 11:51:26;;;;;;;1.20;0.93;;;22.20;45.00;;;;;;5113816;28;20442;-40
2021/04/28 11:53:56;;;;;;;1.00;0.88;;;22.20;45.10;;;;;;5113676;28;20406;-39
2021/04/28 11:56:36;;;;;;;1.13;1.02;;;22.20;45.00;;;;;;5113363;28;20061;-37
2021/04/28 11:59:05;;;;;;;1.00;0.85;;;22.20;45.00;;;;;;5113191;28;20047;-38
2021/04/28 12:01:34;;;;;;;1.00;0.80;;;22.20;45.00;;;;;;5112789;27;20048;-37
2021/04/28 12:04:07;;;;;;;1.23;0.90;;;22.20;45.00;;;;;;5113563;27;20047;-39
2021/04/28 12:06:44;;;;;;;1.25;0.90;;;22.20;45.00;;;;;;5113896;27;20036;-38
2021/04/28 12:09:20;;;;;;;1.30;1.00;;;22.20;45.00;;;;;;5112284;28;20058;-38
2021/04/28 12:11:49;;;;;;;1.48;1.00;;;22.20;45.00;;;;;;5111884;28;20506;-38
2021/04/28 12:14:25;;;;;;;1.08;0.98;;;22.20;45.00;;;;;;5112712;28;20861;-38
2021/04/28 12:16:53;;;;;;;1.15;0.90;;;22.20;45.00;;;;;;5112814;28;20040;-38
2021/04/28 12:19:21;;;;;;;1.17;1.05;;;22.20;45.00;;;;;;5114302;27;20051;-38
2021/04/28 12:22:03;;;;;;;1.48;0.90;;;22.20;45.00;;;;;;5113227;28;20044;-38
2021/04/28 12:24:51;;;;;;;1.30;1.00;;;22.20;45.00;;;;;;5113554;28;20043;-38
2021/04/28 12:27:19;;;;;;;1.10;0.90;;;22.20;45.00;;;;;;5112351;28;20051;-38
2021/04/28 12:29:55;;;;;;;1.13;1.02;;;22.20;45.00;;;;;;5112923;28;20054;-38
2021/04/28 12:32:24;;;;;;;0.82;0.77;;;22.20;45.00;;;;;;5112974;27;20066;-38
2021/04/28 12:35:23;;;;;;;1.00;0.90;;;22.20;45.00;;;;;;5113478;27;20051;-39
2021/04/28 12:38:12;;;;;;;1.65;0.90;;;22.20;45.00;;;;;;5113268;28;20059;-38
2021/04/28 12:40:48;;;;;;;1.10;1.00;;;22.20;45.00;;;;;;5112337;28;20051;-38
2021/04/28 12:43:18;;;;;;;1.10;0.98;;;22.20;45.00;;;;;;5113807;27;20551;-38
2021/04/28 12:46:05;;;;;;;1.88;0.90;;;22.20;45.00;;;;;;5113179;28;20131;-38
2021/04/28 12:49:02;;;;;;;1.00;0.88;;;22.20;45.00;;;;;;5113325;27;20040;-38
2021/04/28 12:51:31;;;;;;;0.95;0.85;;;22.20;45.00;;;;;;5112540;28;20054;-38
2021/04/28 12:53:58;;;;;;;1.13;0.80;;;22.30;45.10;;;;;;5112613;28;20050;-38
2021/04/28 12:56:43;;;;;;;1.25;1.15;;;22.20;45.00;;;;;;5112302;28;20503;-38
2021/04/28 12:59:19;;;;;;;1.13;0.85;;;22.20;45.00;;;;;;5112258;28;20055;-37
2021/04/28 13:02:18;;;;;;;1.50;1.10;;;22.20;45.10;;;;;;5102620;28;20055;-37
2021/04/28 13:04:50;;;;;;;1.27;0.88;;;22.30;45.10;;;;;;5103212;28;20047;-37